Aviation Digital Data Service (ADDS)

Output produced by TAFs form (0457 UTC 29 November 2014)
found at http://www.aviationweather.gov/adds/tafs/
 
KRIC 282335Z 2900/2924 27002KT P6SM SCT150 
     FM291500 20010G15KT P6SM SCT200 
     FM292100 18006KT P6SM SCT200